Time;durP1;ratioP1;P1;durP2;ratioP2;P2;SDS_P1;SDS_P2;PMS_P1;PMS_P2;Temp;Humidity;BMP_temperature;BMP_pressure;BME280_temperature;BME280_humidity;BME280_pressure;Samples;Min_cycle;Max_cycle;Signal;HPM_P1;HPM_P2
2023/09/03 00:02:17;;;;;;;5.60;3.80;;;18.50;91.60;;;;;;5075359;28;20024;-76
2023/09/03 00:04:42;;;;;;;4.90;3.00;;;18.50;91.60;;;;;;5075031;28;20497;-76
2023/09/03 00:07:08;;;;;;;5.65;3.47;;;18.50;91.60;;;;;;5075151;28;20081;-76
2023/09/03 00:09:34;;;;;;;5.78;3.70;;;18.50;91.60;;;;;;5075039;28;20408;-76
2023/09/03 00:12:00;;;;;;;6.00;3.97;;;18.50;91.50;;;;;;5074046;28;20455;-75
2023/09/03 00:14:26;;;;;;;5.00;3.30;;;18.50;91.50;;;;;;5073653;28;20151;-75
2023/09/03 00:16:51;;;;;;;6.05;3.92;;;18.60;91.50;;;;;;5073709;28;20029;-75
2023/09/03 00:19:17;;;;;;;5.40;3.58;;;18.60;91.40;;;;;;5073855;28;20024;-76
2023/09/03 00:21:42;;;;;;;5.85;3.47;;;18.60;91.40;;;;;;5074917;28;20131;-76
2023/09/03 00:24:08;;;;;;;5.55;3.70;;;18.60;91.40;;;;;;5074760;28;20032;-76
2023/09/03 00:26:33;;;;;;;5.97;3.78;;;18.60;91.50;;;;;;5074765;28;20089;-76
2023/09/03 00:28:59;;;;;;;6.20;4.13;;;18.50;91.50;;;;;;5074828;28;20020;-76
2023/09/03 00:31:26;;;;;;;6.60;4.20;;;18.50;91.50;;;;;;5074576;28;20024;-75
2023/09/03 00:33:52;;;;;;;5.47;3.80;;;18.50;91.50;;;;;;5074748;28;20030;-75
2023/09/03 00:36:17;;;;;;;5.45;3.85;;;18.50;91.50;;;;;;5073582;28;20119;-76
2023/09/03 00:38:47;;;;;;;6.15;4.03;;;18.50;91.50;;;;;;5074680;28;20071;-76
2023/09/03 00:41:12;;;;;;;5.85;3.92;;;18.50;91.60;;;;;;5074600;28;20025;-76
2023/09/03 00:43:38;;;;;;;6.05;4.10;;;18.50;91.60;;;;;;5074376;28;20032;-76
2023/09/03 00:46:07;;;;;;;6.18;3.95;;;18.50;91.80;;;;;;5073048;28;20500;-76
2023/09/03 00:48:33;;;;;;;6.30;4.05;;;18.50;91.60;;;;;;5074285;28;20023;-76
2023/09/03 00:51:05;;;;;;;5.93;4.03;;;18.50;91.60;;;;;;5073160;28;20020;-76
2023/09/03 00:53:31;;;;;;;6.03;4.10;;;18.50;91.60;;;;;;5073002;28;20031;-74
2023/09/03 00:55:57;;;;;;;6.18;4.13;;;18.50;91.60;;;;;;5074371;28;20050;-76
2023/09/03 00:58:23;;;;;;;5.88;4.18;;;18.50;91.60;;;;;;5074197;28;20473;-76
2023/09/03 01:00:49;;;;;;;5.85;4.07;;;18.50;91.60;;;;;;5072958;28;20025;-76
2023/09/03 01:03:15;;;;;;;5.88;3.92;;;18.50;91.60;;;;;;5072831;28;20082;-76
2023/09/03 01:05:40;;;;;;;5.28;3.50;;;18.50;91.60;;;;;;5072623;28;20554;-76
2023/09/03 01:08:06;;;;;;;5.68;3.63;;;18.50;91.60;;;;;;5074065;28;20025;-76
2023/09/03 01:10:41;;;;;;;5.88;3.85;;;18.50;91.60;;;;;;5074027;28;20029;-76
2023/09/03 01:13:42;;;;;;;6.00;3.90;;;18.50;91.60;;;;;;5074224;28;20020;-76
2023/09/03 01:16:17;;;;;;;5.35;3.40;;;18.50;91.60;;;;;;5031733;28;20041;-76
2023/09/03 01:18:44;;;;;;;5.70;3.53;;;18.50;91.50;;;;;;5063779;28;20029;-76
2023/09/03 01:21:25;;;;;;;5.32;3.25;;;18.50;91.50;;;;;;5073834;28;20079;-76
2023/09/03 01:23:57;;;;;;;5.15;3.70;;;18.60;91.50;;;;;;5073660;28;20032;-76
2023/09/03 01:26:34;;;;;;;5.90;3.75;;;18.60;91.50;;;;;;5073710;28;20028;-76
2023/09/03 01:29:00;;;;;;;6.35;4.30;;;18.50;91.50;;;;;;5073775;28;20662;-76
2023/09/03 01:31:26;;;;;;;5.85;3.70;;;18.50;91.50;;;;;;5072458;28;20104;-76
2023/09/03 01:34:01;;;;;;;6.10;3.75;;;18.50;91.50;;;;;;5073351;28;20028;-76
2023/09/03 01:36:29;;;;;;;5.75;3.90;;;18.50;91.50;;;;;;5073480;28;20024;-76
2023/09/03 01:38:58;;;;;;;5.85;3.90;;;18.50;91.60;;;;;;5072246;28;20028;-76
2023/09/03 01:41:24;;;;;;;6.00;3.83;;;18.50;91.80;;;;;;5073601;28;20372;-76
2023/09/03 01:43:49;;;;;;;6.95;4.13;;;18.50;91.60;;;;;;5074442;28;20028;-77
2023/09/03 01:46:24;;;;;;;5.75;3.92;;;18.50;91.60;;;;;;5071899;28;20017;-76
2023/09/03 01:49:29;;;;;;;6.45;4.03;;;18.50;91.60;;;;;;5072173;28;20208;-77
2023/09/03 01:51:54;;;;;;;6.13;4.18;;;18.50;91.60;;;;;;5072320;28;20099;-77
2023/09/03 01:54:25;;;;;;;6.35;4.20;;;18.50;91.60;;;;;;5071673;28;20038;-77
2023/09/03 01:57:04;;;;;;;5.82;4.03;;;18.50;91.60;;;;;;5071736;28;20392;-76
2023/09/03 01:59:38;;;;;;;6.90;3.90;;;18.40;91.70;;;;;;5071897;28;20042;-76
2023/09/03 02:02:05;;;;;;;5.78;3.90;;;18.40;91.60;;;;;;5073139;28;20035;-77
2023/09/03 02:04:30;;;;;;;6.25;4.20;;;18.40;91.60;;;;;;5072812;28;20032;-76
2023/09/03 02:06:56;;;;;;;5.95;4.10;;;18.40;91.70;;;;;;5071634;28;20166;-76
2023/09/03 02:09:22;;;;;;;5.50;3.70;;;18.50;91.70;;;;;;5072927;28;20020;-76
2023/09/03 02:11:47;;;;;;;5.60;3.75;;;18.50;91.70;;;;;;5073209;28;20028;-77
2023/09/03 02:14:13;;;;;;;5.78;3.90;;;18.50;91.60;;;;;;5072544;28;20029;-76
2023/09/03 02:16:38;;;;;;;6.05;3.90;;;18.50;91.60;;;;;;5072832;28;20505;-76
2023/09/03 02:19:04;;;;;;;6.22;4.20;;;18.50;91.50;;;;;;5072877;28;20111;-77
2023/09/03 02:21:29;;;;;;;5.63;3.63;;;18.50;91.50;;;;;;5071450;28;20078;-77
2023/09/03 02:23:55;;;;;;;5.18;3.42;;;18.50;91.50;;;;;;5071191;28;20111;-76
2023/09/03 02:26:20;;;;;;;6.15;3.95;;;18.50;91.50;;;;;;5071175;28;20374;-76
2023/09/03 02:28:46;;;;;;;5.93;3.80;;;18.50;91.50;;;;;;5071324;28;20024;-76
2023/09/03 02:31:12;;;;;;;6.10;4.25;;;18.50;91.50;;;;;;5071313;28;20036;-76
2023/09/03 02:33:38;;;;;;;6.18;4.05;;;18.50;91.50;;;;;;5072188;28;20024;-76
2023/09/03 02:36:03;;;;;;;6.10;4.32;;;18.50;91.50;;;;;;5072540;28;20035;-76
2023/09/03 02:38:29;;;;;;;5.88;3.83;;;18.50;91.50;;;;;;5071101;28;20074;-76
2023/09/03 02:40:54;;;;;;;5.85;4.00;;;18.50;91.60;;;;;;5071176;28;20023;-75
2023/09/03 02:43:20;;;;;;;6.40;4.40;;;18.50;91.60;;;;;;5072172;28;20435;-76
2023/09/03 02:45:45;;;;;;;7.05;4.55;;;18.40;91.60;;;;;;5070381;28;20020;-76
2023/09/03 02:48:11;;;;;;;5.75;4.00;;;18.50;91.60;;;;;;5072407;28;20120;-76
2023/09/03 02:50:37;;;;;;;6.20;4.10;;;18.40;91.60;;;;;;5070916;28;20025;-77
2023/09/03 02:53:05;;;;;;;6.15;4.10;;;18.40;91.60;;;;;;5069021;28;20036;-76
2023/09/03 02:55:30;;;;;;;6.40;3.92;;;18.40;91.60;;;;;;5062520;28;20021;-76
2023/09/03 02:57:56;;;;;;;5.68;3.90;;;18.40;91.60;;;;;;5071886;28;20028;-76
2023/09/03 03:00:23;;;;;;;9.00;4.32;;;18.40;91.60;;;;;;5072248;28;20036;-76
2023/09/03 03:02:49;;;;;;;6.53;3.80;;;18.40;91.60;;;;;;5070846;28;20033;-76
2023/09/03 03:05:15;;;;;;;6.70;4.03;;;18.40;91.60;;;;;;5071719;28;20032;-76
2023/09/03 03:07:44;;;;;;;5.30;3.63;;;18.40;91.60;;;;;;5071890;28;20032;-76
2023/09/03 03:10:11;;;;;;;5.70;3.80;;;18.40;91.70;;;;;;5070359;28;20021;-76
2023/09/03 03:12:36;;;;;;;5.68;3.95;;;18.40;91.70;;;;;;5071895;28;20473;-77
2023/09/03 03:15:03;;;;;;;5.05;3.45;;;18.40;91.60;;;;;;5070272;28;20044;-78
2023/09/03 03:17:28;;;;;;;6.03;4.00;;;18.50;91.60;;;;;;5071867;28;20024;-77
2023/09/03 03:19:54;;;;;;;6.05;3.97;;;18.50;91.60;;;;;;5071807;28;20397;-76
2023/09/03 03:22:19;;;;;;;6.05;4.03;;;18.50;91.60;;;;;;5071996;28;20056;-77
2023/09/03 03:24:45;;;;;;;6.03;3.85;;;18.50;91.50;;;;;;5071513;28;20020;-76
2023/09/03 03:27:10;;;;;;;5.80;3.92;;;18.50;91.50;;;;;;5071490;28;20063;-77
2023/09/03 03:29:36;;;;;;;5.72;3.90;;;18.50;91.50;;;;;;5072142;28;20191;-76
2023/09/03 03:32:02;;;;;;;6.20;4.13;;;18.50;91.50;;;;;;5071667;28;20485;-76
2023/09/03 03:34:27;;;;;;;5.80;3.97;;;18.50;91.50;;;;;;5071736;28;20021;-77
2023/09/03 03:36:53;;;;;;;5.57;3.72;;;18.50;91.50;;;;;;5071579;28;20393;-76
2023/09/03 03:39:20;;;;;;;5.75;4.05;;;18.40;91.50;;;;;;5071702;28;20078;-76
2023/09/03 03:41:46;;;;;;;6.78;4.63;;;18.50;91.60;;;;;;5070355;28;20035;-76
2023/09/03 03:44:11;;;;;;;5.65;4.00;;;18.40;91.60;;;;;;5070150;28;20089;-75
2023/09/03 03:46:37;;;;;;;6.13;3.90;;;18.40;91.60;;;;;;5071197;28;20033;-76
2023/09/03 03:49:03;;;;;;;5.75;4.13;;;18.40;91.60;;;;;;5071615;28;20017;-76
2023/09/03 03:51:29;;;;;;;6.28;3.97;;;18.40;91.60;;;;;;5070199;28;20370;-77
2023/09/03 03:53:55;;;;;;;6.18;4.20;;;18.40;91.60;;;;;;5071305;28;20017;-78
2023/09/03 03:56:21;;;;;;;6.07;3.95;;;18.40;91.60;;;;;;5071405;28;20032;-76
2023/09/03 03:58:47;;;;;;;6.10;4.03;;;18.40;91.60;;;;;;5071372;28;20130;-76
2023/09/03 04:01:15;;;;;;;5.82;3.63;;;18.40;91.60;;;;;;5071468;28;20120;-78
2023/09/03 04:03:41;;;;;;;6.63;4.60;;;18.40;91.60;;;;;;5069873;28;20028;-78
2023/09/03 04:06:07;;;;;;;6.22;4.43;;;18.40;91.60;;;;;;5070351;28;20029;-76
2023/09/03 04:08:33;;;;;;;7.10;4.55;;;18.40;91.60;;;;;;5071307;28;20369;-76
2023/09/03 04:11:07;;;;;;;6.55;4.45;;;18.40;91.70;;;;;;5071351;28;20024;-77
2023/09/03 04:13:33;;;;;;;5.97;4.18;;;18.40;91.70;;;;;;5071416;28;20468;-76
2023/09/03 04:16:00;;;;;;;5.68;3.88;;;18.40;91.70;;;;;;5071346;28;20013;-76
2023/09/03 04:18:27;;;;;;;6.60;4.18;;;18.40;91.60;;;;;;5071146;28;20033;-76
2023/09/03 04:20:57;;;;;;;6.20;4.15;;;18.40;91.60;;;;;;5073247;28;20439;-76
2023/09/03 04:23:23;;;;;;;6.30;4.20;;;18.40;91.60;;;;;;5074978;28;20476;-77
2023/09/03 04:25:51;;;;;;;6.18;4.18;;;18.50;91.60;;;;;;5074928;28;20028;-78
2023/09/03 04:28:17;;;;;;;5.78;4.00;;;18.50;91.50;;;;;;5074742;28;20432;-77
2023/09/03 04:30:42;;;;;;;6.00;4.13;;;18.50;91.60;;;;;;5074852;28;20024;-77
2023/09/03 04:33:08;;;;;;;5.95;4.10;;;18.50;91.60;;;;;;5074794;28;20470;-77
2023/09/03 04:35:38;;;;;;;6.22;4.28;;;18.50;91.60;;;;;;5074495;28;20116;-77
2023/09/03 04:38:05;;;;;;;6.05;4.30;;;18.50;91.50;;;;;;5073832;28;20073;-77
2023/09/03 04:40:34;;;;;;;6.20;4.20;;;18.40;91.50;;;;;;5073427;28;20033;-76
2023/09/03 04:43:00;;;;;;;6.30;4.20;;;18.40;91.50;;;;;;5074632;28;20035;-77
2023/09/03 04:45:26;;;;;;;6.50;4.38;;;18.40;91.60;;;;;;5073929;28;20278;-78
2023/09/03 04:47:52;;;;;;;6.50;4.07;;;18.40;91.60;;;;;;5074436;28;20024;-77
2023/09/03 04:50:17;;;;;;;6.03;4.00;;;18.40;91.60;;;;;;5073184;28;20025;-77
2023/09/03 04:52:44;;;;;;;6.47;4.35;;;18.40;91.60;;;;;;5071151;28;20024;-77
2023/09/03 04:55:11;;;;;;;6.68;4.57;;;18.40;91.60;;;;;;5072780;28;20025;-77
2023/09/03 04:57:36;;;;;;;5.90;4.28;;;18.40;91.60;;;;;;5074282;28;20029;-77
2023/09/03 05:00:04;;;;;;;5.85;4.20;;;18.40;91.60;;;;;;5073170;28;20028;-76
2023/09/03 05:02:29;;;;;;;5.88;4.30;;;18.40;91.60;;;;;;5072991;28;20051;-76
2023/09/03 05:04:55;;;;;;;6.20;4.53;;;18.40;91.60;;;;;;5074042;28;20489;-77
2023/09/03 05:07:20;;;;;;;5.82;4.07;;;18.40;91.60;;;;;;5071287;28;20381;-77
2023/09/03 05:09:46;;;;;;;6.30;4.40;;;18.40;91.60;;;;;;5071938;28;20048;-76
2023/09/03 05:12:11;;;;;;;6.20;4.30;;;18.40;91.60;;;;;;5073991;28;20039;-78
2023/09/03 05:14:37;;;;;;;6.40;4.57;;;18.40;91.70;;;;;;5073767;28;20027;-77
2023/09/03 05:17:02;;;;;;;6.15;4.20;;;18.40;91.70;;;;;;5072693;28;20024;-76
2023/09/03 05:19:28;;;;;;;6.15;4.35;;;18.40;91.70;;;;;;5072703;28;20021;-76
2023/09/03 05:21:53;;;;;;;6.00;4.20;;;18.40;91.60;;;;;;5073938;28;20025;-78
2023/09/03 05:24:19;;;;;;;6.30;4.38;;;18.50;91.60;;;;;;5072279;28;20047;-77
2023/09/03 05:26:44;;;;;;;6.00;4.10;;;18.50;91.60;;;;;;5073868;28;20295;-76
2023/09/03 05:29:10;;;;;;;6.20;4.30;;;18.50;91.50;;;;;;5073828;28;20385;-76
2023/09/03 05:31:35;;;;;;;6.10;4.38;;;18.50;91.50;;;;;;5071854;28;20024;-78
2023/09/03 05:34:01;;;;;;;6.50;4.50;;;18.50;91.60;;;;;;5072260;28;20017;-76
2023/09/03 05:36:27;;;;;;;7.43;4.93;;;18.50;91.50;;;;;;5073536;28;20024;-77
2023/09/03 05:38:53;;;;;;;7.10;4.53;;;18.50;91.50;;;;;;5073540;28;20027;-77
2023/09/03 05:41:19;;;;;;;6.70;4.82;;;18.50;91.50;;;;;;5072448;28;20396;-76
2023/09/03 05:43:44;;;;;;;6.40;4.82;;;18.50;91.50;;;;;;5072147;28;20032;-76
2023/09/03 05:46:10;;;;;;;6.60;4.70;;;18.50;91.50;;;;;;5072170;28;20119;-76
2023/09/03 05:48:35;;;;;;;6.82;4.70;;;18.40;91.50;;;;;;5072069;28;20017;-76
2023/09/03 05:51:05;;;;;;;6.75;4.63;;;18.40;91.50;;;;;;5072085;28;20022;-78
2023/09/03 05:53:32;;;;;;;7.00;4.55;;;18.40;91.50;;;;;;5073054;28;20571;-77
2023/09/03 05:56:08;;;;;;;6.80;4.50;;;18.40;91.50;;;;;;5073318;28;20021;-77
2023/09/03 05:58:33;;;;;;;6.20;4.47;;;18.40;91.50;;;;;;5071888;28;20017;-77
2023/09/03 06:01:06;;;;;;;6.82;4.57;;;18.40;91.50;;;;;;5073309;28;20027;-77
2023/09/03 06:03:32;;;;;;;7.00;4.80;;;18.40;91.50;;;;;;5071563;28;20017;-76
2023/09/03 06:06:15;;;;;;;6.28;4.70;;;18.40;91.50;;;;;;5072872;28;20138;-77
2023/09/03 06:08:41;;;;;;;6.18;4.53;;;18.40;91.50;;;;;;5072884;28;20021;-76
2023/09/03 06:11:08;;;;;;;6.53;4.22;;;18.40;91.60;;;;;;5072996;28;20021;-76
2023/09/03 06:13:34;;;;;;;6.50;4.57;;;18.40;91.50;;;;;;5072626;28;20029;-76
2023/09/03 06:15:59;;;;;;;6.68;4.80;;;18.40;91.70;;;;;;5071695;28;20028;-76
2023/09/03 06:18:25;;;;;;;6.22;4.50;;;18.40;91.60;;;;;;5071401;28;20192;-77
2023/09/03 06:20:51;;;;;;;5.82;4.18;;;18.50;91.70;;;;;;5072794;28;20028;-76
2023/09/03 06:23:21;;;;;;;5.97;4.40;;;18.50;91.60;;;;;;5072698;28;20032;-77
2023/09/03 06:25:48;;;;;;;6.03;4.47;;;18.50;91.60;;;;;;5072544;28;20023;-77
2023/09/03 06:28:14;;;;;;;6.45;4.68;;;18.50;91.60;;;;;;5072424;28;20017;-77
2023/09/03 06:30:41;;;;;;;6.47;4.57;;;18.50;91.50;;;;;;5072623;28;20021;-76
2023/09/03 06:33:07;;;;;;;6.10;4.40;;;18.60;91.50;;;;;;5071432;28;20115;-76
2023/09/03 06:35:33;;;;;;;6.30;4.40;;;18.60;91.50;;;;;;5072136;28;20028;-76
2023/09/03 06:37:59;;;;;;;5.97;4.38;;;18.60;91.40;;;;;;5072372;28;20568;-76
2023/09/03 06:40:25;;;;;;;5.90;4.20;;;18.60;91.30;;;;;;5072309;28;20033;-76
2023/09/03 06:42:51;;;;;;;5.97;4.20;;;18.60;91.30;;;;;;5071149;28;20481;-76
2023/09/03 06:45:17;;;;;;;6.57;4.78;;;18.60;91.20;;;;;;5071213;28;20058;-76
2023/09/03 06:47:43;;;;;;;6.22;4.15;;;18.70;91.20;;;;;;5072203;28;20389;-76
2023/09/03 06:50:09;;;;;;;6.15;4.43;;;18.60;91.10;;;;;;5072276;28;20021;-76
2023/09/03 06:52:35;;;;;;;6.13;4.32;;;18.70;91.10;;;;;;5072103;28;20558;-76
2023/09/03 06:55:01;;;;;;;5.85;4.00;;;18.70;91.10;;;;;;5072044;28;20028;-77
2023/09/03 06:57:27;;;;;;;6.57;4.70;;;18.70;91.00;;;;;;5070821;28;20481;-77
2023/09/03 06:59:53;;;;;;;5.95;4.25;;;18.80;91.00;;;;;;5072175;28;20033;-77
2023/09/03 07:02:19;;;;;;;6.25;4.60;;;18.80;91.00;;;;;;5071969;28;20504;-77
2023/09/03 07:04:44;;;;;;;6.38;4.45;;;18.80;90.90;;;;;;5071758;28;20119;-76
2023/09/03 07:07:10;;;;;;;5.97;4.20;;;18.80;90.90;;;;;;5071805;28;20052;-76
2023/09/03 07:09:35;;;;;;;6.00;4.20;;;18.80;90.80;;;;;;5071942;28;20025;-76
2023/09/03 07:12:02;;;;;;;6.00;4.10;;;18.90;90.80;;;;;;5072117;28;20024;-78
2023/09/03 07:14:34;;;;;;;6.22;4.43;;;18.90;90.70;;;;;;5071531;28;20016;-76
2023/09/03 07:17:01;;;;;;;6.22;4.38;;;18.90;90.70;;;;;;5070482;28;20507;-76
2023/09/03 07:19:27;;;;;;;6.60;4.75;;;18.90;90.70;;;;;;5071732;28;20033;-76
2023/09/03 07:21:53;;;;;;;6.07;4.20;;;19.00;90.70;;;;;;5071935;28;20505;-76
2023/09/03 07:24:19;;;;;;;6.28;4.45;;;19.00;90.70;;;;;;5070321;28;20035;-76
2023/09/03 07:26:45;;;;;;;6.15;4.50;;;19.00;90.60;;;;;;5070734;28;20021;-75
2023/09/03 07:29:12;;;;;;;6.45;4.45;;;19.00;90.60;;;;;;5071708;28;20024;-77
2023/09/03 07:31:40;;;;;;;6.00;4.47;;;19.00;90.50;;;;;;5070373;28;20024;-77
2023/09/03 07:34:07;;;;;;;5.97;4.05;;;19.10;90.50;;;;;;5070363;28;20020;-77
2023/09/03 07:36:33;;;;;;;6.30;4.50;;;19.10;90.70;;;;;;5071649;28;20025;-76
2023/09/03 07:38:58;;;;;;;6.47;4.45;;;19.10;90.40;;;;;;5071800;28;20086;-76
2023/09/03 07:41:24;;;;;;;6.15;4.70;;;19.10;90.40;;;;;;5071642;28;20500;-76
2023/09/03 07:43:51;;;;;;;6.30;4.80;;;19.10;90.40;;;;;;5071554;28;20031;-76
2023/09/03 07:46:17;;;;;;;6.10;4.47;;;19.10;90.30;;;;;;5071325;28;20024;-78
2023/09/03 07:48:42;;;;;;;6.40;4.50;;;19.20;90.30;;;;;;5071615;28;20393;-76
2023/09/03 07:51:08;;;;;;;6.90;5.07;;;19.20;90.30;;;;;;5070355;28;20021;-76
2023/09/03 07:53:33;;;;;;;6.82;5.00;;;19.20;90.30;;;;;;5070011;28;20017;-76
2023/09/03 07:55:59;;;;;;;7.00;5.43;;;19.20;90.30;;;;;;5073901;28;20521;-77
2023/09/03 07:58:24;;;;;;;6.65;5.00;;;19.20;90.30;;;;;;5075382;28;20064;-76
2023/09/03 08:00:50;;;;;;;7.07;5.03;;;19.20;90.30;;;;;;5074517;28;20056;-76
2023/09/03 08:03:16;;;;;;;7.05;5.20;;;19.30;90.20;;;;;;5074129;28;20025;-76
2023/09/03 08:05:41;;;;;;;6.70;4.97;;;19.30;90.20;;;;;;5075033;28;20035;-76
2023/09/03 08:08:07;;;;;;;7.05;5.63;;;19.30;90.20;;;;;;5073960;28;20581;-78
2023/09/03 08:10:32;;;;;;;6.97;5.28;;;19.30;90.10;;;;;;5075214;28;20025;-77
2023/09/03 08:12:58;;;;;;;7.03;5.50;;;19.30;90.10;;;;;;5075299;28;20477;-77
2023/09/03 08:15:23;;;;;;;7.00;5.05;;;19.40;90.10;;;;;;5074786;28;20040;-78
2023/09/03 08:17:49;;;;;;;7.38;5.40;;;19.30;90.10;;;;;;5073842;28;20112;-76
2023/09/03 08:20:14;;;;;;;6.72;4.90;;;19.40;90.20;;;;;;5073751;28;20219;-77
2023/09/03 08:22:40;;;;;;;7.18;5.32;;;19.40;90.10;;;;;;5073798;28;20070;-77
2023/09/03 08:25:06;;;;;;;6.82;5.25;;;19.40;90.10;;;;;;5074832;28;20079;-78
2023/09/03 08:27:31;;;;;;;6.80;5.00;;;19.40;90.00;;;;;;5074679;28;20028;-77
2023/09/03 08:29:57;;;;;;;6.90;5.25;;;19.50;89.80;;;;;;5074797;28;20020;-78
2023/09/03 08:32:23;;;;;;;7.07;5.30;;;19.50;89.60;;;;;;5073646;28;20246;-78
2023/09/03 08:34:50;;;;;;;7.38;5.38;;;19.60;89.50;;;;;;5074691;28;20020;-78
2023/09/03 08:37:16;;;;;;;6.97;5.18;;;19.60;89.50;;;;;;5073445;28;20025;-78
2023/09/03 08:39:41;;;;;;;7.28;5.47;;;19.60;89.50;;;;;;5074801;28;20481;-78
2023/09/03 08:42:10;;;;;;;7.57;5.45;;;19.60;89.60;;;;;;5073539;28;20024;-77
2023/09/03 08:44:42;;;;;;;7.50;5.40;;;19.60;89.60;;;;;;5074118;28;20029;-77
2023/09/03 08:47:12;;;;;;;6.88;5.05;;;19.60;89.60;;;;;;5074507;28;20020;-78
2023/09/03 08:49:38;;;;;;;7.55;5.75;;;19.60;89.60;;;;;;5074383;28;20024;-77
2023/09/03 08:52:06;;;;;;;6.10;4.38;;;19.60;89.60;;;;;;5074533;28;20421;-76
2023/09/03 08:54:32;;;;;;;7.60;5.60;;;19.60;89.60;;;;;;5074235;28;20028;-76
2023/09/03 08:56:59;;;;;;;7.07;4.93;;;19.60;89.60;;;;;;5074463;28;20020;-77
2023/09/03 08:59:25;;;;;;;6.82;5.15;;;19.60;89.50;;;;;;5073152;28;20029;-77
2023/09/03 09:01:56;;;;;;;7.05;5.13;;;19.60;89.50;;;;;;5073121;28;20074;-77
2023/09/03 09:04:23;;;;;;;6.65;5.05;;;19.60;89.50;;;;;;5073948;28;20508;-76
2023/09/03 09:06:49;;;;;;;6.63;4.72;;;19.70;89.50;;;;;;5072009;28;20036;-76
2023/09/03 09:09:16;;;;;;;6.35;4.65;;;19.70;89.50;;;;;;5072798;28;20027;-77
2023/09/03 09:11:49;;;;;;;6.53;4.70;;;19.70;89.60;;;;;;5074161;28;20024;-78
2023/09/03 09:14:27;;;;;;;6.60;4.65;;;19.70;89.60;;;;;;5072582;28;20477;-76
2023/09/03 09:16:53;;;;;;;6.20;4.55;;;19.70;89.60;;;;;;5072920;28;20025;-76
2023/09/03 09:19:19;;;;;;;6.13;4.30;;;19.70;89.70;;;;;;5073829;28;20020;-76
2023/09/03 09:21:44;;;;;;;6.40;4.60;;;19.70;89.70;;;;;;5074216;28;20032;-77
2023/09/03 09:24:11;;;;;;;6.60;4.80;;;19.70;89.60;;;;;;5073747;28;20387;-78
2023/09/03 09:26:38;;;;;;;6.68;4.72;;;19.70;89.60;;;;;;5073781;28;20485;-76
2023/09/03 09:29:05;;;;;;;6.50;4.53;;;19.70;89.50;;;;;;5072475;28;20017;-77
2023/09/03 09:31:32;;;;;;;6.22;4.35;;;19.80;89.50;;;;;;5072394;28;20498;-76
2023/09/03 09:34:00;;;;;;;6.40;4.45;;;19.80;89.30;;;;;;5073522;28;20412;-77
2023/09/03 09:36:26;;;;;;;5.90;4.00;;;19.80;89.30;;;;;;5074037;28;20024;-76
2023/09/03 09:38:51;;;;;;;5.68;4.05;;;19.80;89.30;;;;;;5073778;28;20024;-77
2023/09/03 09:41:25;;;;;;;6.07;3.97;;;19.80;89.40;;;;;;5072404;28;20117;-78
2023/09/03 09:43:51;;;;;;;5.70;3.78;;;19.80;89.50;;;;;;5073392;28;20477;-76
2023/09/03 09:46:31;;;;;;;5.25;3.63;;;19.70;89.50;;;;;;5071905;28;20037;-76
2023/09/03 09:48:58;;;;;;;5.65;3.90;;;19.70;89.60;;;;;;5072094;28;20119;-75
2023/09/03 09:51:25;;;;;;;5.57;3.88;;;19.70;89.70;;;;;;5071930;28;20504;-76
2023/09/03 09:53:58;;;;;;;5.85;4.00;;;19.80;89.70;;;;;;5073134;28;20023;-76
2023/09/03 09:56:34;;;;;;;5.85;3.90;;;19.80;89.60;;;;;;5073183;28;20074;-76
2023/09/03 09:59:00;;;;;;;5.78;3.90;;;19.70;89.60;;;;;;5071955;28;20055;-78
2023/09/03 10:01:40;;;;;;;6.20;3.97;;;19.70;89.70;;;;;;5073057;28;20024;-77
2023/09/03 10:04:06;;;;;;;5.78;3.92;;;19.70;89.70;;;;;;5072893;28;20032;-76
2023/09/03 10:06:32;;;;;;;5.60;3.85;;;19.70;89.70;;;;;;5072944;28;20031;-76
2023/09/03 10:08:58;;;;;;;5.97;3.88;;;19.70;89.80;;;;;;5071854;28;20025;-75
2023/09/03 10:11:23;;;;;;;5.57;3.72;;;19.80;89.80;;;;;;5071708;28;20043;-77
2023/09/03 10:13:50;;;;;;;5.40;3.80;;;19.80;89.80;;;;;;5072801;28;20098;-76
2023/09/03 10:16:19;;;;;;;5.43;3.70;;;19.80;89.80;;;;;;5073271;28;20021;-76
2023/09/03 10:18:47;;;;;;;5.15;3.38;;;19.80;89.70;;;;;;5072662;28;20442;-77
2023/09/03 10:21:23;;;;;;;5.85;3.95;;;19.80;89.80;;;;;;5072760;28;20442;-77
2023/09/03 10:23:50;;;;;;;5.35;3.63;;;19.80;89.70;;;;;;5072655;28;20016;-76
2023/09/03 10:26:39;;;;;;;5.13;3.45;;;19.80;89.70;;;;;;5072582;28;20028;-76
2023/09/03 10:29:08;;;;;;;5.20;3.40;;;19.80;89.60;;;;;;5072671;28;20017;-76
2023/09/03 10:31:36;;;;;;;5.68;3.50;;;19.80;89.70;;;;;;5072597;28;20044;-77
2023/09/03 10:34:01;;;;;;;5.47;3.40;;;19.80;89.60;;;;;;5070972;28;20028;-76
2023/09/03 10:36:27;;;;;;;4.85;3.20;;;19.80;89.60;;;;;;5071215;28;20034;-76
2023/09/03 10:38:53;;;;;;;5.35;3.42;;;19.80;89.60;;;;;;5071181;28;20165;-76
2023/09/03 10:41:19;;;;;;;5.20;3.40;;;19.80;89.70;;;;;;5072593;28;20034;-77
2023/09/03 10:43:46;;;;;;;5.72;3.47;;;19.80;89.70;;;;;;5072182;28;20052;-76
2023/09/03 10:46:12;;;;;;;5.45;3.42;;;19.80;89.80;;;;;;5070767;28;20024;-76
2023/09/03 10:48:38;;;;;;;5.28;3.38;;;19.80;89.80;;;;;;5072238;28;20021;-76
2023/09/03 10:51:04;;;;;;;5.07;3.15;;;19.80;89.80;;;;;;5072327;28;20017;-76
2023/09/03 10:53:42;;;;;;;5.07;3.35;;;19.80;89.90;;;;;;5070752;28;20444;-76
2023/09/03 10:56:09;;;;;;;4.80;3.15;;;19.80;89.80;;;;;;5072273;28;20497;-76
2023/09/03 10:58:35;;;;;;;4.95;3.38;;;19.80;89.80;;;;;;5072130;28;20017;-76
2023/09/03 11:01:20;;;;;;;4.95;3.13;;;19.80;89.80;;;;;;5072160;28;20095;-76
2023/09/03 11:03:47;;;;;;;4.63;3.00;;;19.80;89.80;;;;;;5070687;28;20021;-76
2023/09/03 11:06:18;;;;;;;4.60;2.67;;;19.80;89.80;;;;;;5072175;28;20031;-76
2023/09/03 11:08:48;;;;;;;5.00;3.20;;;19.70;90.10;;;;;;5070724;28;20550;-77
2023/09/03 11:11:21;;;;;;;4.35;2.97;;;19.80;90.00;;;;;;5070783;28;20028;-77
2023/09/03 11:13:53;;;;;;;4.93;3.00;;;19.70;89.90;;;;;;5071698;28;20043;-76
2023/09/03 11:16:32;;;;;;;5.53;2.70;;;19.70;90.00;;;;;;5070732;28;20052;-76
2023/09/03 11:18:58;;;;;;;6.25;3.00;;;19.70;90.00;;;;;;5070853;28;20020;-76
2023/09/03 11:21:24;;;;;;;4.82;2.80;;;19.70;89.90;;;;;;5071898;28;20024;-76
2023/09/03 11:24:17;;;;;;;10.65;3.13;;;19.70;89.80;;;;;;5070465;28;20039;-78
2023/09/03 11:26:43;;;;;;;16.63;11.40;;;19.80;89.50;;;;;;5071861;28;20542;-76
2023/09/03 11:29:20;;;;;;;17.52;12.90;;;19.80;89.30;;;;;;5071888;28;20029;-76
2023/09/03 11:31:47;;;;;;;18.55;12.85;;;19.80;89.30;;;;;;5071556;28;20013;-76
2023/09/03 11:34:22;;;;;;;15.68;12.52;;;19.80;89.20;;;;;;5070438;28;20025;-76
2023/09/03 11:36:48;;;;;;;15.90;11.98;;;19.80;89.20;;;;;;5071994;28;20435;-76
2023/09/03 11:39:15;;;;;;;15.85;11.93;;;19.80;89.20;;;;;;5070445;28;20028;-76
2023/09/03 11:41:45;;;;;;;15.88;11.75;;;19.80;89.30;;;;;;5071711;28;20485;-76
2023/09/03 11:44:19;;;;;;;13.68;10.73;;;19.80;89.40;;;;;;5071538;28;20028;-76
2023/09/03 11:46:59;;;;;;;15.20;11.20;;;19.80;89.50;;;;;;5071560;28;20021;-76
2023/09/03 11:49:24;;;;;;;15.35;10.95;;;19.80;89.60;;;;;;5071541;28;20043;-76
2023/09/03 11:51:50;;;;;;;16.30;11.38;;;19.80;89.70;;;;;;5071621;28;20546;-78
2023/09/03 11:54:23;;;;;;;15.25;11.52;;;19.70;89.70;;;;;;5069967;28;20027;-78
2023/09/03 11:56:49;;;;;;;14.30;10.38;;;19.70;89.80;;;;;;5070456;28;20033;-78
2023/09/03 11:59:15;;;;;;;13.05;10.05;;;19.70;89.80;;;;;;5071457;28;20020;-77
2023/09/03 12:01:41;;;;;;;14.45;10.48;;;19.70;89.80;;;;;;5071359;28;20024;-77
2023/09/03 12:04:06;;;;;;;14.32;10.38;;;19.70;89.90;;;;;;5071047;28;20037;-76
2023/09/03 12:06:37;;;;;;;15.05;10.88;;;19.70;89.90;;;;;;5071312;28;20354;-77
2023/09/03 12:09:03;;;;;;;13.85;10.35;;;19.70;89.90;;;;;;5071551;28;20071;-76
2023/09/03 12:11:31;;;;;;;14.23;10.20;;;19.70;90.00;;;;;;5071379;28;20040;-76
2023/09/03 12:13:57;;;;;;;13.68;9.73;;;19.70;90.00;;;;;;5071073;28;20095;-78
2023/09/03 12:16:24;;;;;;;13.73;10.07;;;19.70;90.20;;;;;;5071385;28;20112;-77
2023/09/03 12:19:01;;;;;;;12.75;9.35;;;19.70;90.00;;;;;;5071200;28;20016;-78
2023/09/03 12:21:34;;;;;;;13.27;10.02;;;19.70;90.00;;;;;;5069983;28;20431;-77
2023/09/03 12:24:07;;;;;;;13.40;10.52;;;19.80;89.90;;;;;;5069787;28;20024;-77
2023/09/03 12:26:35;;;;;;;13.23;9.75;;;19.70;89.80;;;;;;5071217;28;20029;-77
2023/09/03 12:29:03;;;;;;;12.20;9.68;;;19.80;89.80;;;;;;5069887;28;20024;-77
2023/09/03 12:31:41;;;;;;;12.48;10.10;;;19.70;89.70;;;;;;5071215;28;20021;-77
2023/09/03 12:34:08;;;;;;;12.43;9.52;;;19.80;89.70;;;;;;5070936;28;20016;-76
2023/09/03 12:36:33;;;;;;;13.55;9.63;;;19.70;89.80;;;;;;5071028;28;20393;-76
2023/09/03 12:39:03;;;;;;;11.90;9.13;;;19.70;89.80;;;;;;5069865;28;20024;-77
2023/09/03 12:41:37;;;;;;;13.63;9.35;;;19.70;89.90;;;;;;5069722;28;20025;-77
2023/09/03 12:44:07;;;;;;;12.88;9.35;;;19.70;90.00;;;;;;5074486;28;20028;-77
2023/09/03 12:46:34;;;;;;;12.10;9.13;;;19.70;90.00;;;;;;5074278;28;20029;-78
2023/09/03 12:49:00;;;;;;;12.00;8.77;;;19.70;90.00;;;;;;5074598;28;20050;-76